Time;durP1;ratioP1;P1;durP2;ratioP2;P2;SDS_P1;SDS_P2;PMS_P1;PMS_P2;Temp;Humidity;BMP_temperature;BMP_pressure;BME280_temperature;BME280_humidity;BME280_pressure;Samples;Min_cycle;Max_cycle;Signal;HPM_P1;HPM_P2
2022/07/24 00:00:08;;;;;;;4.67;3.25;;;;;;;18.39;100.00;100809.52;1820427;78;21019;-81
2022/07/24 00:02:34;;;;;;;5.47;3.40;;;;;;;18.33;100.00;100814.84;1815508;78;21492;-83
2022/07/24 00:05:01;;;;;;;4.40;3.10;;;;;;;18.29;100.00;100812.46;1820581;78;21032;-85
2022/07/24 00:07:28;;;;;;;6.58;3.35;;;;;;;18.25;100.00;100812.03;1788202;78;21027;-81
2022/07/24 00:09:55;;;;;;;4.92;3.50;;;;;;;18.14;100.00;100810.06;1820262;78;21507;-83
2022/07/24 00:12:21;;;;;;;5.65;3.42;;;;;;;18.13;100.00;100818.01;1819933;78;21085;-82
2022/07/24 00:14:47;;;;;;;5.55;3.70;;;;;;;18.10;100.00;100830.89;1820647;78;22813;-82
2022/07/24 00:17:13;;;;;;;11.68;3.62;;;;;;;18.08;100.00;100818.11;1820202;78;21036;-83
2022/07/24 00:19:39;;;;;;;8.20;3.72;;;;;;;18.03;100.00;100827.22;1820458;78;20975;-81
2022/07/24 00:22:06;;;;;;;6.58;3.62;;;;;;;17.99;100.00;100822.66;1819998;78;21535;-87
2022/07/24 00:24:32;;;;;;;6.05;3.83;;;;;;;17.92;100.00;100815.70;1820344;78;20963;-80
2022/07/24 00:27:00;;;;;;;9.45;3.65;;;;;;;17.90;100.00;100817.11;1788208;78;21546;-80
2022/07/24 00:29:26;;;;;;;6.42;4.05;;;;;;;17.86;100.00;100821.00;1820041;78;21618;-87
2022/07/24 00:31:52;;;;;;;8.88;3.52;;;;;;;17.83;100.00;100818.08;1820535;78;20987;-81
2022/07/24 00:34:18;;;;;;;5.08;3.65;;;;;;;17.80;100.00;100820.05;1820318;78;21591;-82
2022/07/24 00:36:44;;;;;;;5.28;3.72;;;;;;;17.76;100.00;100822.52;1820622;78;21577;-82
2022/07/24 00:39:11;;;;;;;5.97;3.60;;;;;;;17.73;100.00;100818.23;1820221;78;21018;-82
2022/07/24 00:41:38;;;;;;;8.53;3.62;;;;;;;17.67;100.00;100818.33;1820101;78;21089;-79
2022/07/24 00:44:12;;;;;;;10.25;3.83;;;;;;;17.65;100.00;100822.48;1815686;78;22131;-82
2022/07/24 00:46:41;;;;;;;7.22;3.90;;;;;;;17.63;100.00;100821.41;1809116;78;20968;-82
2022/07/24 00:49:11;;;;;;;9.63;4.00;;;;;;;17.60;100.00;100819.29;1809268;78;20984;-82
2022/07/24 00:51:41;;;;;;;7.80;4.00;;;;;;;17.55;100.00;100822.10;1809191;78;21054;-82
2022/07/24 00:54:09;;;;;;;5.25;4.08;;;;;;;17.55;100.00;100818.58;1809083;78;21075;-79
2022/07/24 00:56:36;;;;;;;8.35;4.10;;;;;;;17.56;100.00;100822.38;1809019;78;21487;-83
2022/07/24 00:59:04;;;;;;;9.18;4.42;;;;;;;17.47;100.00;100807.27;1809289;78;21011;-82
2022/07/24 01:01:31;;;;;;;7.12;4.10;;;;;;;17.61;100.00;100829.08;1809221;78;20980;-84
2022/07/24 01:03:58;;;;;;;7.90;4.45;;;;;;;17.61;100.00;100838.61;1809273;78;21020;-82
2022/07/24 01:06:24;;;;;;;7.78;4.28;;;;;;;17.60;100.00;100830.75;1808843;79;21042;-83
2022/07/24 01:08:51;;;;;;;7.03;4.60;;;;;;;17.58;100.00;100832.40;1809151;79;21012;-82
2022/07/24 01:11:19;;;;;;;7.53;4.30;;;;;;;17.54;100.00;100834.13;1809240;78;21096;-83
2022/07/24 01:13:48;;;;;;;6.17;4.05;;;;;;;17.46;100.00;100834.81;1809157;78;20984;-82
2022/07/24 01:16:14;;;;;;;7.90;4.58;;;;;;;17.41;100.00;100841.17;1809097;78;21566;-83
2022/07/24 01:18:40;;;;;;;9.00;4.35;;;;;;;17.34;100.00;100839.38;1809527;78;21045;-81
2022/07/24 01:21:07;;;;;;;10.70;4.62;;;;;;;17.19;100.00;100836.36;1809196;78;21030;-83
2022/07/24 01:23:34;;;;;;;8.80;4.55;;;;;;;17.19;100.00;100836.36;1809366;78;21050;-83
2022/07/24 01:26:01;;;;;;;7.15;3.98;;;;;;;17.14;100.00;100840.52;1809259;78;21432;-81
2022/07/24 01:28:28;;;;;;;5.92;3.98;;;;;;;17.08;100.00;100831.38;1808814;78;20967;-79
2022/07/24 01:30:54;;;;;;;8.90;3.87;;;;;;;16.99;100.00;100831.25;1809193;78;20989;-81
2022/07/24 01:33:20;;;;;;;11.03;4.30;;;;;;;16.82;100.00;100825.53;1808865;78;21027;-81
2022/07/24 01:35:46;;;;;;;6.42;4.10;;;;;;;16.82;100.00;100825.53;1808959;78;21093;-81
2022/07/24 01:38:16;;;;;;;9.68;4.08;;;;;;;16.68;100.00;100811.29;1809183;78;20877;-81
2022/07/24 01:40:42;;;;;;;5.92;3.90;;;;;;;16.76;100.00;100826.16;1808873;78;21027;-82
2022/07/24 01:43:08;;;;;;;7.60;4.35;;;;;;;16.73;100.00;100824.80;1809262;78;20967;-78
2022/07/24 01:45:34;;;;;;;9.95;3.87;;;;;;;16.68;100.00;100826.26;1808863;78;20988;-79
2022/07/24 01:48:01;;;;;;;12.23;3.92;;;;;;;16.56;100.00;100832.14;1809048;78;21094;-79
2022/07/24 01:50:27;;;;;;;7.97;4.80;;;;;;;16.56;100.00;100832.14;1805294;78;21551;-82
2022/07/24 01:52:53;;;;;;;9.00;4.25;;;;;;;16.56;100.00;100832.70;1809445;78;20968;-82
2022/07/24 01:55:21;;;;;;;12.68;4.97;;;;;;;16.49;100.00;100830.33;1809002;78;21508;-80
2022/07/24 01:57:47;;;;;;;8.58;4.33;;;;;;;16.46;100.00;100834.99;1808814;78;21018;-79
2022/07/24 02:00:14;;;;;;;7.00;4.65;;;;;;;16.43;100.00;100831.50;1808922;78;21039;-82
2022/07/24 02:02:43;;;;;;;6.50;4.25;;;;;;;16.39;100.00;100831.03;1808991;78;21079;-79
2022/07/24 02:05:12;;;;;;;6.85;4.35;;;;;;;16.31;100.00;100828.41;1809384;78;21465;-81
2022/07/24 02:07:40;;;;;;;12.23;5.28;;;;;;;16.31;100.00;100828.41;1808999;78;21142;-82
2022/07/24 02:10:06;;;;;;;11.78;4.20;;;;;;;16.27;100.00;100826.02;1809226;78;21039;-83
2022/07/24 02:12:33;;;;;;;8.13;4.28;;;;;;;16.24;100.00;100830.69;1809163;79;21274;-82
2022/07/24 02:14:58;;;;;;;10.48;4.70;;;;;;;16.23;100.00;100829.85;1809262;78;21464;-81
2022/07/24 02:17:24;;;;;;;9.80;4.45;;;;;;;16.18;100.00;100833.19;1809289;78;20892;-82
2022/07/24 02:19:50;;;;;;;7.70;4.50;;;;;;;16.14;100.00;100831.61;1809383;78;21654;-81
2022/07/24 02:22:17;;;;;;;6.20;4.12;;;;;;;16.11;100.00;100832.19;1809308;78;20877;-78
2022/07/24 02:24:43;;;;;;;9.18;5.05;;;;;;;16.13;100.00;100831.36;1809830;78;21063;-81
2022/07/24 02:27:09;;;;;;;15.25;5.03;;;;;;;16.11;100.00;100825.39;1786676;78;21023;-81
2022/07/24 02:29:35;;;;;;;6.20;4.53;;;;;;;16.16;100.00;100829.97;1809233;78;20959;-82
2022/07/24 02:32:01;;;;;;;9.70;5.00;;;;;;;16.23;100.00;100829.85;1809219;78;21531;-81
2022/07/24 02:34:27;;;;;;;9.73;4.55;;;;;;;16.29;100.00;100828.69;1809417;78;20931;-80
2022/07/24 02:36:53;;;;;;;8.45;4.85;;;;;;;16.28;100.00;100834.42;1809364;78;21556;-80
2022/07/24 02:39:19;;;;;;;8.18;4.78;;;;;;;16.28;100.00;100837.95;1809364;78;20991;-82
2022/07/24 02:41:45;;;;;;;9.65;5.05;;;;;;;16.27;100.00;100834.18;1809324;78;21003;-82
2022/07/24 02:44:11;;;;;;;7.50;5.05;;;;;;;16.32;100.00;100836.81;1779238;79;21152;-82
2022/07/24 02:46:37;;;;;;;12.50;5.80;;;;;;;16.38;100.00;100844.36;1771392;80;20959;-82
2022/07/24 02:49:03;;;;;;;11.68;5.08;;;;;;;16.45;100.00;100838.02;1771534;80;20956;-82
2022/07/24 02:51:29;;;;;;;9.80;4.90;;;;;;;16.53;100.00;100837.34;1771553;80;20999;-82
2022/07/24 02:53:55;;;;;;;8.15;4.92;;;;;;;16.60;100.00;100833.72;1771473;81;21011;-81
2022/07/24 02:56:21;;;;;;;7.90;5.58;;;;;;;16.69;100.00;100836.03;1771585;80;20993;-82
2022/07/24 02:58:47;;;;;;;8.38;5.20;;;;;;;16.78;100.00;100835.65;1771075;81;20980;-82
2022/07/24 03:01:13;;;;;;;9.30;5.80;;;;;;;16.90;100.00;100834.39;1771408;80;21042;-82
2022/07/24 03:03:39;;;;;;;10.45;5.50;;;;;;;16.99;100.00;100838.86;1771587;80;20924;-82
2022/07/24 03:06:05;;;;;;;8.60;5.03;;;;;;;17.11;100.00;100849.29;1771591;80;20988;-82
2022/07/24 03:08:31;;;;;;;10.28;4.83;;;;;;;17.20;100.00;100849.42;1771217;80;21149;-82
2022/07/24 03:10:57;;;;;;;11.30;5.30;;;;;;;17.24;100.00;100851.27;1775457;80;20844;-82
2022/07/24 03:13:23;;;;;;;6.70;4.83;;;;;;;17.36;100.00;100851.35;1771452;81;20844;-82
2022/07/24 03:15:49;;;;;;;10.93;5.87;;;;;;;17.51;100.00;100853.00;1771563;80;21062;-82
2022/07/24 03:18:15;;;;;;;8.15;5.35;;;;;;;17.65;100.00;100857.92;1771409;81;20967;-81
2022/07/24 03:20:41;;;;;;;8.43;5.30;;;;;;;17.81;100.00;100859.83;1750020;80;21941;-81
2022/07/24 03:23:07;;;;;;;7.37;4.40;;;;;;;18.11;100.00;100855.68;1771460;81;20972;-82
2022/07/24 03:25:33;;;;;;;6.15;4.50;;;;;;;18.82;100.00;100850.08;1771555;80;21487;-81
2022/07/24 03:27:59;;;;;;;7.83;4.45;;;;;;;19.61;100.00;100843.73;1771290;79;20877;-83
2022/07/24 03:30:25;;;;;;;8.25;4.50;;;;;;;20.13;100.00;100844.77;1771244;81;21019;-82
2022/07/24 03:32:51;;;;;;;8.93;4.35;;;;;;;21.03;100.00;100842.03;1771456;81;21912;-83
2022/07/24 03:35:17;;;;;;;5.50;3.90;;;;;;;21.69;100.00;100839.81;1771339;80;20913;-83
2022/07/24 03:37:43;;;;;;;5.40;3.95;;;;;;;22.20;100.00;100846.20;1771604;80;21037;-82
2022/07/24 03:40:10;;;;;;;5.03;3.70;;;;;;;23.12;100.00;100850.06;1771271;81;21071;-81
2022/07/24 03:42:37;;;;;;;7.80;3.60;;;;;;;23.64;100.00;100848.68;1771441;80;20995;-82
2022/07/24 03:45:04;;;;;;;7.22;3.55;;;;;;;23.71;100.00;100851.72;1766515;79;21134;-82
2022/07/24 03:47:30;;;;;;;6.58;3.77;;;;;;;23.99;100.00;100849.87;1760569;80;20981;-84
2022/07/24 03:49:56;;;;;;;5.00;4.17;;;;;;;24.54;100.00;100853.75;1760528;81;21079;-83
2022/07/24 03:52:22;;;;;;;4.62;3.37;;;;;;;25.28;100.00;100845.43;1760604;80;21044;-82
2022/07/24 03:54:48;;;;;;;7.78;3.52;;;;;;;26.12;100.00;100850.48;1760067;81;20921;-81
2022/07/24 03:57:14;;;;;;;3.20;2.90;;;;;;;26.81;100.00;100850.25;1760288;81;21048;-84
2022/07/24 03:59:40;;;;;;;6.95;3.60;;;;;;;27.54;100.00;100846.31;1760435;80;20956;-84
2022/07/24 04:02:06;;;;;;;4.10;3.30;;;;;;;28.06;100.00;100840.06;1760359;81;21055;-85
2022/07/24 04:04:33;;;;;;;4.75;3.17;;;;;;;28.64;100.00;100836.70;1760532;80;21657;-81
2022/07/24 04:06:58;;;;;;;6.65;3.55;;;;;;;28.99;100.00;100840.48;1760477;80;21607;-81
2022/07/24 04:09:25;;;;;;;6.42;3.60;;;;;;;29.40;100.00;100835.78;1759917;81;21132;-84
2022/07/24 04:11:51;;;;;;;5.72;3.50;;;;;;;29.94;100.00;100840.41;1760255;81;21111;-84
2022/07/24 04:14:16;;;;;;;4.92;3.67;;;;;;;30.17;97.54;100837.39;1760641;80;20940;-81
2022/07/24 04:16:42;;;;;;;4.35;3.58;;;;;;;30.64;93.97;100835.66;1760582;80;20885;-82
2022/07/24 04:19:08;;;;;;;4.75;3.37;;;;;;;31.34;86.28;100843.84;1760536;80;21067;-82
2022/07/24 04:21:36;;;;;;;7.05;4.00;;;;;;;31.84;86.73;100837.70;1760403;80;21065;-84
2022/07/24 04:24:02;;;;;;;5.50;3.75;;;;;;;32.39;78.41;100835.03;1760337;81;21297;-84
2022/07/24 04:26:28;;;;;;;7.92;4.70;;;;;;;32.59;74.87;100831.17;1760381;81;20988;-82
2022/07/24 04:28:54;;;;;;;8.05;4.55;;;;;;;32.94;73.60;100830.20;1760387;81;20999;-84
2022/07/24 04:31:20;;;;;;;8.88;4.97;;;;;;;33.19;68.14;100832.89;1760440;81;20948;-84
2022/07/24 04:33:46;;;;;;;9.80;5.00;;;;;;;33.29;66.13;100831.82;1760464;81;21877;-88
2022/07/24 04:36:12;;;;;;;13.22;5.58;;;;;;;33.40;64.04;100834.73;1760468;80;20874;-84
2022/07/24 04:38:38;;;;;;;12.18;5.47;;;;;;;33.28;61.20;100836.62;1760549;80;21501;-84
2022/07/24 04:41:04;;;;;;;8.25;4.00;;;;;;;33.12;60.98;100832.95;1760404;81;21235;-84
2022/07/24 04:43:30;;;;;;;10.05;5.42;;;;;;;33.38;61.17;100830.75;1760514;80;21067;-81
2022/07/24 04:45:56;;;;;;;8.33;4.83;;;;;;;33.73;60.83;100828.89;1767485;80;21045;-84
2022/07/24 04:48:24;;;;;;;7.30;3.70;;;;;;;34.29;60.46;100821.15;1771236;80;20943;-84
2022/07/24 04:50:50;;;;;;;5.83;3.65;;;;;;;34.70;56.40;100817.47;1771061;80;21509;-82
2022/07/24 04:53:17;;;;;;;3.75;3.30;;;;;;;35.09;55.27;100821.13;1771454;81;21028;-84
2022/07/24 04:55:43;;;;;;;6.90;3.02;;;;;;;35.43;53.10;100821.00;1771401;81;21563;-84
2022/07/24 04:58:09;;;;;;;4.83;3.00;;;;;;;35.45;51.03;100823.39;1771490;81;21119;-84
2022/07/24 05:00:35;;;;;;;5.90;3.00;;;;;;;35.67;50.79;100820.42;1771583;81;20976;-84
2022/07/24 05:03:01;;;;;;;3.50;3.20;;;;;;;35.57;49.59;100817.20;1771619;81;20960;-83
2022/07/24 05:05:27;;;;;;;5.08;3.05;;;;;;;35.49;48.87;100815.09;1771368;81;20868;-84
2022/07/24 05:07:53;;;;;;;5.08;3.30;;;;;;;35.79;48.49;100818.22;1771499;80;20897;-84
2022/07/24 05:10:19;;;;;;;6.80;3.40;;;;;;;36.13;47.76;100825.82;1771143;80;21879;-82
2022/07/24 05:12:44;;;;;;;5.22;2.92;;;;;;;36.45;46.21;100824.39;1771616;80;20905;-83
2022/07/24 05:15:13;;;;;;;6.22;3.15;;;;;;;36.67;45.70;100826.77;1771457;80;20896;-84
2022/07/24 05:17:39;;;;;;;3.87;3.12;;;;;;;37.09;45.22;100824.23;1770834;80;21039;-83
2022/07/24 05:20:07;;;;;;;3.35;2.92;;;;;;;37.66;43.84;100827.08;1771430;80;21003;-84
2022/07/24 05:22:33;;;;;;;4.70;3.30;;;;;;;37.99;42.51;100832.67;1771450;81;21803;-83
2022/07/24 05:24:59;;;;;;;3.47;3.17;;;;;;;38.38;42.47;100840.00;1771257;81;21000;-84
2022/07/24 05:27:25;;;;;;;4.72;3.37;;;;;;;38.68;40.53;100842.98;1771590;80;21045;-85
2022/07/24 05:29:52;;;;;;;3.55;3.25;;;;;;;38.83;39.34;100842.72;1771513;79;21066;-85
2022/07/24 05:32:18;;;;;;;5.10;3.20;;;;;;;38.49;39.23;100849.59;1771424;79;21023;-82
2022/07/24 05:34:44;;;;;;;6.03;2.95;;;;;;;38.57;38.48;100848.14;1771476;81;21217;-85
2022/07/24 05:37:10;;;;;;;3.92;3.20;;;;;;;37.71;38.53;100847.63;1771248;81;20845;-90
2022/07/24 05:39:36;;;;;;;5.17;3.17;;;;;;;37.17;39.24;100843.92;1771443;81;20980;-84
2022/07/24 05:42:03;;;;;;;7.55;3.55;;;;;;;37.31;40.20;100854.05;1771442;80;20809;-83
2022/07/24 05:44:29;;;;;;;4.05;3.30;;;;;;;37.75;40.16;100849.75;1772571;79;20929;-84
2022/07/24 05:46:58;;;;;;;4.58;3.12;;;;;;;38.36;39.94;100848.91;1760807;78;21137;-86
2022/07/24 05:49:24;;;;;;;5.67;3.70;;;;;;;38.84;38.64;100847.10;1760219;81;20984;-84
2022/07/24 05:51:50;;;;;;;9.40;4.35;;;;;;;39.15;38.07;100843.77;1739201;81;21507;-85
2022/07/24 05:54:16;;;;;;;3.75;3.37;;;;;;;39.49;37.32;100840.87;1764777;81;20947;-86
2022/07/24 05:56:42;;;;;;;4.33;3.27;;;;;;;39.59;36.18;100835.47;1764596;81;20955;-85
2022/07/24 05:59:15;;;;;;;4.65;3.25;;;;;;;39.82;36.90;100827.88;1764675;81;21801;-85
2022/07/24 06:01:45;;;;;;;8.88;4.00;;;;;;;40.38;36.34;100828.47;1709642;83;21527;-86
2022/07/24 06:04:11;;;;;;;3.67;3.37;;;;;;;40.94;35.04;100823.28;1709969;83;21034;-86
2022/07/24 06:06:37;;;;;;;7.17;3.75;;;;;;;40.86;34.04;100818.56;1709866;83;21748;-88
2022/07/24 06:09:04;;;;;;;4.40;3.50;;;;;;;40.11;33.73;100814.30;1709974;82;21022;-85
2022/07/24 06:11:30;;;;;;;4.15;3.55;;;;;;;40.06;35.18;100810.65;1709948;83;21283;-85
2022/07/24 06:13:57;;;;;;;4.25;3.20;;;;;;;40.23;33.64;100809.86;1710059;83;21053;-86
2022/07/24 06:16:23;;;;;;;6.90;3.95;;;;;;;39.41;33.91;100811.31;1710188;83;21585;-86
2022/07/24 06:18:49;;;;;;;5.58;3.30;;;;;;;38.76;34.06;100808.32;1710081;83;20999;-87
2022/07/24 06:21:15;;;;;;;4.35;3.45;;;;;;;38.09;34.47;100801.42;1710140;83;21136;-85
2022/07/24 06:23:42;;;;;;;3.62;3.33;;;;;;;37.78;35.42;100800.24;1710492;83;21132;-85
2022/07/24 06:26:08;;;;;;;6.35;3.50;;;;;;;37.86;34.96;100801.02;1709689;83;21509;-84
2022/07/24 06:28:34;;;;;;;4.10;3.20;;;;;;;38.12;35.65;100799.12;1710277;83;21042;-84
2022/07/24 06:31:00;;;;;;;3.65;3.35;;;;;;;38.43;35.15;100794.42;1710091;83;21519;-86
2022/07/24 06:33:26;;;;;;;4.33;3.02;;;;;;;38.49;35.73;100791.22;1750934;81;20858;-85
2022/07/24 06:35:52;;;;;;;3.98;3.45;;;;;;;38.98;34.80;100785.93;1760471;81;21078;-84
2022/07/24 06:38:20;;;;;;;5.97;3.62;;;;;;;39.15;33.77;100781.73;1760684;81;20985;-86
2022/07/24 06:40:46;;;;;;;3.60;3.30;;;;;;;38.96;34.09;100779.95;1708647;83;21509;-86
2022/07/24 06:43:12;;;;;;;4.45;3.40;;;;;;;39.42;34.00;100780.47;1708582;84;21051;-85
2022/07/24 06:45:38;;;;;;;5.47;3.50;;;;;;;40.10;34.23;100783.72;1714181;83;21019;-86
2022/07/24 06:48:05;;;;;;;4.20;3.47;;;;;;;40.96;33.49;100768.48;1726576;80;21139;-87
2022/07/24 06:50:31;;;;;;;4.40;3.50;;;;;;;41.64;32.67;100768.47;1726453;80;21053;-90
2022/07/24 06:52:57;;;;;;;4.12;3.50;;;;;;;42.12;31.23;100767.97;1726751;80;20990;-85
2022/07/24 06:55:23;;;;;;;6.00;3.58;;;;;;;41.62;30.85;100767.36;1726613;80;20891;-85
2022/07/24 06:57:55;;;;;;;5.97;3.40;;;;;;;41.69;30.38;100765.65;1726466;80;21042;-87
2022/07/24 07:02:50;;;;;;;3.45;3.10;;;;;;;41.85;29.34;100768.14;1633550;87;21054;-86
2022/07/24 07:05:16;;;;;;;5.35;3.22;;;;;;;41.40;30.07;100763.25;1633876;87;21054;-86
2022/07/24 07:07:43;;;;;;;5.50;3.12;;;;;;;41.93;29.82;100763.77;1634333;87;21090;-85
2022/07/24 07:10:10;;;;;;;3.65;3.33;;;;;;;42.41;29.81;100761.14;1633768;87;21717;-84
2022/07/24 07:12:36;;;;;;;6.40;3.85;;;;;;;42.57;28.59;100765.67;1633957;87;21085;-85
2022/07/24 07:15:04;;;;;;;3.70;3.40;;;;;;;41.66;28.55;100758.11;1633948;87;21595;-85
2022/07/24 07:17:31;;;;;;;4.03;3.35;;;;;;;40.63;28.74;100769.63;1634095;87;21129;-86
2022/07/24 07:19:57;;;;;;;8.50;3.58;;;;;;;39.83;29.54;100768.75;1633986;87;21536;-85
2022/07/24 07:23:00;;;;;;;4.72;3.02;;;;;;;39.67;29.99;100765.48;1634243;87;21012;-86
2022/07/24 07:25:26;;;;;;;3.27;2.83;;;;;;;39.95;31.22;100763.06;1634065;87;21258;-88
2022/07/24 07:27:52;;;;;;;3.15;2.87;;;;;;;41.43;30.04;100758.84;1633985;87;21580;-85
2022/07/24 07:30:18;;;;;;;7.75;2.90;;;;;;;42.23;28.77;100759.77;1634270;87;21047;-85
2022/07/24 07:32:44;;;;;;;3.58;3.27;;;;;;;42.22;28.28;100755.37;1634104;87;21043;-87
2022/07/24 07:35:11;;;;;;;5.62;2.58;;;;;;;42.35;26.93;100758.03;1633782;87;21231;-85
2022/07/24 07:37:37;;;;;;;3.35;3.10;;;;;;;42.13;28.00;100763.89;1657973;84;21112;-88
2022/07/24 07:40:05;;;;;;;3.30;2.92;;;;;;;42.86;27.91;100756.58;1660109;85;21034;-84
2022/07/24 07:42:31;;;;;;;3.17;2.98;;;;;;;43.60;27.27;100754.70;1683664;85;21101;-91
2022/07/24 07:44:57;;;;;;;7.50;3.92;;;;;;;43.80;25.98;100749.78;1683933;85;21518;-86
2022/07/24 07:47:23;;;;;;;3.52;3.33;;;;;;;43.70;27.09;100750.49;1683645;83;21022;-86
2022/07/24 07:49:49;;;;;;;3.52;3.22;;;;;;;44.19;26.12;100754.77;1683879;85;21090;-87
2022/07/24 07:52:15;;;;;;;5.87;3.35;;;;;;;43.49;25.60;100748.13;1684152;85;21035;-86
2022/07/24 07:54:42;;;;;;;4.08;3.10;;;;;;;42.57;25.96;100749.30;1684020;84;21038;-85
2022/07/24 07:57:08;;;;;;;5.47;3.27;;;;;;;42.13;25.97;100745.48;1630509;85;21967;-85
2022/07/24 07:59:34;;;;;;;4.28;3.20;;;;;;;41.48;26.74;100744.74;1684393;85;21093;-86
2022/07/24 08:02:00;;;;;;;3.50;3.20;;;;;;;41.41;26.64;100741.55;1684079;85;21779;-85
2022/07/24 08:04:26;;;;;;;3.40;2.95;;;;;;;41.53;26.66;100748.34;1684326;85;21547;-86
2022/07/24 08:06:52;;;;;;;3.20;2.90;;;;;;;41.67;26.78;100757.62;1782276;78;21484;-84
2022/07/24 08:09:20;;;;;;;3.20;2.90;;;;;;;41.64;26.73;100744.41;1808787;78;21273;-86
2022/07/24 08:11:46;;;;;;;3.27;2.98;;;;;;;42.18;26.11;100744.81;1809177;78;20984;-90
2022/07/24 08:14:13;;;;;;;3.62;3.33;;;;;;;42.72;25.52;100733.80;1809412;78;21774;-84
2022/07/24 08:16:39;;;;;;;4.03;3.30;;;;;;;42.78;24.96;100738.34;1809163;78;20965;-83
2022/07/24 08:19:06;;;;;;;4.87;3.20;;;;;;;42.04;25.40;100738.43;1809096;78;20976;-84
2022/07/24 08:21:32;;;;;;;3.50;3.20;;;;;;;41.04;25.41;100731.62;1781658;80;21004;-86
2022/07/24 08:23:59;;;;;;;3.72;3.08;;;;;;;40.61;26.62;100746.05;1781867;80;21008;-84
2022/07/24 08:26:25;;;;;;;5.33;3.40;;;;;;;41.11;26.57;100736.81;1782314;80;21346;-84
2022/07/24 08:28:51;;;;;;;3.55;3.15;;;;;;;40.92;25.82;100733.92;1782256;80;21074;-85
2022/07/24 08:31:17;;;;;;;6.80;3.52;;;;;;;40.87;26.75;100733.11;1782416;80;21015;-89
2022/07/24 08:33:43;;;;;;;7.35;3.37;;;;;;;40.67;26.40;100732.11;1782323;79;21563;-85
2022/07/24 08:36:09;;;;;;;5.17;3.42;;;;;;;41.20;27.32;100738.23;1782312;80;21042;-86
2022/07/24 08:38:35;;;;;;;6.00;3.22;;;;;;;41.40;26.10;100729.30;1782131;80;21079;-85
2022/07/24 08:41:02;;;;;;;4.85;3.12;;;;;;;42.06;25.72;100728.80;1782262;80;21665;-85
2022/07/24 08:43:28;;;;;;;5.97;2.47;;;;;;;42.01;25.19;100728.02;1782803;80;21102;-82
2022/07/24 08:45:55;;;;;;;3.58;2.70;;;;;;;42.06;25.19;100725.33;1792256;79;21019;-85
2022/07/24 08:48:22;;;;;;;6.85;2.33;;;;;;;41.35;26.08;100732.75;1804610;78;21504;-83
2022/07/24 08:50:50;;;;;;;3.62;2.90;;;;;;;40.76;26.90;100732.77;1804301;79;21074;-82
2022/07/24 08:53:22;;;;;;;4.45;2.80;;;;;;;39.95;27.39;100741.89;1804443;79;20992;-87
2022/07/24 08:55:49;;;;;;;4.03;2.90;;;;;;;40.33;27.10;100712.65;1804444;79;21003;-85
2022/07/24 08:58:16;;;;;;;3.20;2.90;;;;;;;40.97;26.94;100707.84;1804528;79;21438;-84
2022/07/24 09:00:42;;;;;;;4.47;3.25;;;;;;;40.60;26.91;100728.92;1804356;78;21546;-84
2022/07/24 09:03:08;;;;;;;3.33;3.02;;;;;;;40.60;26.91;100728.92;1804495;79;21109;-83
2022/07/24 09:05:54;;;;;;;5.17;2.92;;;;;;;40.07;27.65;100730.98;1804221;79;21472;-84
2022/07/24 09:08:20;;;;;;;6.58;3.00;;;;;;;39.54;28.53;100733.09;1804060;79;21062;-82
2022/07/24 09:11:00;;;;;;;3.60;2.87;;;;;;;39.54;28.53;100733.09;1804084;79;20955;-84
2022/07/24 09:13:29;;;;;;;5.05;3.10;;;;;;;39.78;27.68;100724.99;1671720;84;21747;-84
2022/07/24 09:15:56;;;;;;;3.40;3.10;;;;;;;40.15;27.37;100727.44;1671125;84;21204;-83
2022/07/24 09:18:33;;;;;;;4.85;2.83;;;;;;;40.46;27.68;100728.08;1671317;84;21053;-84
2022/07/24 09:21:16;;;;;;;4.20;2.98;;;;;;;40.94;27.22;100717.25;1671654;84;21551;-83
2022/07/24 09:23:43;;;;;;;5.65;3.00;;;;;;;41.19;27.11;100719.70;1671003;84;21631;-85
2022/07/24 09:26:10;;;;;;;4.80;3.25;;;;;;;41.25;26.25;100722.06;1671578;84;21104;-85
2022/07/24 09:28:55;;;;;;;4.50;3.00;;;;;;;41.13;25.85;100710.27;1671495;84;21773;-83
2022/07/24 09:33:49;;;;;;;6.12;3.90;;;;;;;41.93;26.40;100718.45;1615468;87;21511;-82
2022/07/24 09:36:18;;;;;;;3.98;3.20;;;;;;;42.15;25.01;100706.92;1615805;87;21097;-84
2022/07/24 09:38:50;;;;;;;3.90;3.35;;;;;;;42.55;25.70;100710.72;1615611;87;21108;-84
2022/07/24 09:41:24;;;;;;;4.25;3.33;;;;;;;42.29;25.45;100714.58;1615644;87;21945;-83
2022/07/24 09:44:00;;;;;;;6.00;3.12;;;;;;;41.18;26.20;100710.44;1567972;90;21101;-84
2022/07/24 09:46:26;;;;;;;4.92;3.52;;;;;;;40.01;27.37;100712.45;1571306;89;21095;-83
2022/07/24 09:48:57;;;;;;;5.50;3.27;;;;;;;40.08;27.37;100708.55;1578097;90;21083;-84
2022/07/24 09:51:26;;;;;;;4.67;3.37;;;;;;;40.33;26.99;100702.77;1578015;90;21107;-84
2022/07/24 09:53:59;;;;;;;3.35;2.87;;;;;;;40.49;27.79;100706.58;1578076;90;21859;-84
2022/07/24 09:56:27;;;;;;;4.08;3.02;;;;;;;40.68;27.37;100698.97;1577691;90;21142;-83
2022/07/24 09:58:57;;;;;;;5.67;3.45;;;;;;;40.54;27.26;100701.75;1577860;90;21115;-84
2022/07/24 10:01:26;;;;;;;9.85;3.77;;;;;;;40.03;27.47;100708.52;1577988;90;21706;-85
2022/07/24 10:03:55;;;;;;;3.65;2.98;;;;;;;39.24;27.55;100707.70;1577658;90;21611;-83
2022/07/24 10:06:26;;;;;;;3.85;3.37;;;;;;;38.27;28.17;100699.54;1577953;90;21147;-83
2022/07/24 10:08:55;;;;;;;6.97;3.50;;;;;;;37.37;28.74;100701.23;1580596;90;21074;-83
2022/07/24 10:11:21;;;;;;;5.97;3.10;;;;;;;37.36;30.00;100697.45;1633946;86;21077;-84
2022/07/24 10:13:48;;;;;;;3.33;3.00;;;;;;;37.46;31.01;100701.39;1638107;86;21053;-84
2022/07/24 10:16:30;;;;;;;6.53;3.10;;;;;;;37.84;30.50;100699.36;1638324;86;21004;-84
2022/07/24 10:19:03;;;;;;;5.85;3.02;;;;;;;38.03;29.21;100691.99;1638440;86;21148;-84
2022/07/24 10:21:33;;;;;;;7.58;3.45;;;;;;;38.21;30.46;100682.23;1641907;85;21511;-83
2022/07/24 10:24:11;;;;;;;4.58;3.15;;;;;;;37.98;30.46;100686.16;1660637;85;21046;-83
2022/07/24 10:26:51;;;;;;;6.97;3.33;;;;;;;37.27;30.55;100686.86;1660527;85;21073;-91
2022/07/24 10:29:23;;;;;;;4.35;3.40;;;;;;;36.86;31.51;100691.09;1626173;87;21127;-84
2022/07/24 10:31:54;;;;;;;5.58;3.25;;;;;;;36.49;32.29;100695.94;1648757;87;22063;-80
2022/07/24 10:34:40;;;;;;;7.45;3.33;;;;;;;36.39;33.30;100694.95;1615665;88;21093;-85
2022/07/24 10:37:35;;;;;;;3.52;3.12;;;;;;;36.54;32.93;100694.05;1613475;88;21027;-84
2022/07/24 10:40:19;;;;;;;5.05;3.17;;;;;;;36.49;32.55;100677.68;1564155;91;21043;-83
2022/07/24 10:43:10;;;;;;;7.03;2.92;;;;;;;36.61;32.61;100684.03;1564020;91;21101;-85
2022/07/24 10:45:41;;;;;;;4.28;3.30;;;;;;;36.72;32.49;100675.98;1563965;91;22037;-83
2022/07/24 10:48:26;;;;;;;5.30;2.95;;;;;;;37.00;31.50;100666.06;1563905;91;21031;-79
2022/07/24 10:51:11;;;;;;;5.85;2.77;;;;;;;37.08;31.39;100668.88;1563698;91;21109;-83
2022/07/24 10:53:46;;;;;;;4.25;2.60;;;;;;;36.91;31.63;100675.09;1564004;91;21059;-88
2022/07/24 10:56:25;;;;;;;3.92;2.62;;;;;;;36.41;31.69;100680.47;1560759;91;21716;-83
2022/07/24 10:59:02;;;;;;;7.45;3.12;;;;;;;35.96;31.98;100677.44;1563914;91;21345;-83
2022/07/24 11:01:36;;;;;;;3.30;2.58;;;;;;;35.71;32.51;100673.94;1563924;91;21110;-83
2022/07/24 11:04:22;;;;;;;3.85;2.72;;;;;;;35.45;32.50;100674.82;1563993;91;21063;-82
2022/07/24 11:07:11;;;;;;;3.95;2.75;;;;;;;35.41;32.88;100670.66;1563969;91;21097;-83
2022/07/24 11:10:00;;;;;;;8.05;2.65;;;;;;;35.66;33.10;100671.63;1497350;95;21086;-83
2022/07/24 11:12:29;;;;;;;8.38;3.35;;;;;;;35.58;32.44;100661.77;1494533;95;21241;-83
2022/07/24 11:17:48;;;;;;;3.27;2.50;;;;;;;35.09;33.05;100664.84;1484371;95;21085;-86
2022/07/24 11:20:17;;;;;;;3.50;2.60;;;;;;;35.27;32.82;100651.33;1480873;95;21081;-85
2022/07/24 11:29:39;;;;;;;3.42;2.90;;;;;;;35.61;31.57;100644.08;1439188;99;21833;-89
2022/07/24 11:32:17;;;;;;;7.72;2.50;;;;;;;35.09;31.81;100644.63;1478395;94;21041;-85
2022/07/24 11:34:49;;;;;;;2.92;2.60;;;;;;;35.28;32.11;100638.11;1496676;94;21194;-83
2022/07/24 11:37:16;;;;;;;4.12;2.55;;;;;;;35.51;32.50;100636.66;1449234;97;21284;-84
2022/07/24 11:39:45;;;;;;;2.95;2.42;;;;;;;35.71;32.28;100635.28;1449132;97;21971;-84